Time;durP1;ratioP1;P1;durP2;ratioP2;P2;SDS_P1;SDS_P2;PMS_P1;PMS_P2;Temp;Humidity;BMP_temperature;BMP_pressure;BME280_temperature;BME280_humidity;BME280_pressure;Samples;Min_cycle;Max_cycle;Signal;HPM_P1;HPM_P2
2021/08/12 00:01:17;;;;;;;5.43;3.83;;;;;;;;;;5035233;28;20055;-80
2021/08/12 00:03:43;;;;;;;6.30;3.60;;;;;;;;;;5037512;28;20483;-81
2021/08/12 00:06:09;;;;;;;4.75;3.65;;;;;;;;;;5037667;28;20041;-80
2021/08/12 00:08:34;;;;;;;5.07;3.75;;;;;;;;;;5037401;28;20579;-80
2021/08/12 00:11:00;;;;;;;6.22;4.13;;;;;;;;;;5037281;28;20029;-81
2021/08/12 00:13:25;;;;;;;5.07;3.88;;;;;;;;;;5037924;28;20041;-80
2021/08/12 00:15:51;;;;;;;4.68;3.25;;;;;;;;;;5020915;28;20086;-80
2021/08/12 00:18:17;;;;;;;6.43;4.25;;;;;;;;;;5037266;28;20056;-80
2021/08/12 00:20:42;;;;;;;5.30;4.15;;;;;;;;;;5036890;28;20032;-80
2021/08/12 00:23:08;;;;;;;5.22;4.20;;;;;;;;;;5037322;28;20128;-81
2021/08/12 00:25:33;;;;;;;4.57;3.25;;;;;;;;;;5053929;28;20029;-80
2021/08/12 00:27:59;;;;;;;6.75;3.97;;;;;;;;;;5021037;28;20033;-80
2021/08/12 00:30:24;;;;;;;6.80;4.47;;;;;;;;;;5004132;28;20155;-80
2021/08/12 00:32:50;;;;;;;6.10;4.18;;;;;;;;;;5037232;28;20047;-80
2021/08/12 00:35:15;;;;;;;4.82;3.88;;;;;;;;;;5053515;28;20087;-80
2021/08/12 00:37:41;;;;;;;5.45;4.35;;;;;;;;;;5053426;28;20102;-80
2021/08/12 00:40:06;;;;;;;6.47;4.47;;;;;;;;;;5036815;28;20067;-81
2021/08/12 00:42:32;;;;;;;5.50;3.78;;;;;;;;;;5037312;28;20037;-81
2021/08/12 00:44:57;;;;;;;5.05;3.97;;;;;;;;;;5041173;28;20499;-78
2021/08/12 00:47:23;;;;;;;6.55;4.53;;;;;;;;;;5061060;28;20107;-78
2021/08/12 00:49:48;;;;;;;5.10;4.05;;;;;;;;;;5052971;28;20060;-78
2021/08/12 00:52:14;;;;;;;6.10;4.28;;;;;;;;;;5069913;28;20041;-78
2021/08/12 00:54:40;;;;;;;5.93;4.10;;;;;;;;;;5069948;28;20071;-78
2021/08/12 00:57:05;;;;;;;5.78;3.85;;;;;;;;;;5036365;28;20044;-78
2021/08/12 00:59:37;;;;;;;5.75;4.00;;;;;;;;;;5053104;28;20033;-78
2021/08/12 01:02:12;;;;;;;5.60;3.67;;;;;;;;;;5037024;28;20044;-78
2021/08/12 01:04:38;;;;;;;5.18;4.55;;;;;;;;;;5052952;28;20373;-78
2021/08/12 01:07:10;;;;;;;5.68;4.18;;;;;;;;;;5020148;28;20490;-78
2021/08/12 01:10:16;;;;;;;5.47;4.40;;;;;;;;;;5020681;28;20033;-79
2021/08/12 01:13:02;;;;;;;6.78;4.15;;;;;;;;;;5051885;28;20594;-78
2021/08/12 01:15:31;;;;;;;4.85;4.03;;;;;;;;;;5053060;28;20552;-79
2021/08/12 01:18:34;;;;;;;6.05;3.75;;;;;;;;;;5036468;28;20037;-78
2021/08/12 01:21:30;;;;;;;5.32;4.22;;;;;;;;;;5012214;28;20037;-79
2021/08/12 01:24:00;;;;;;;6.03;4.15;;;;;;;;;;5052952;28;20037;-79
2021/08/12 01:26:26;;;;;;;5.55;4.03;;;;;;;;;;5035438;28;20110;-79
2021/08/12 01:28:51;;;;;;;5.38;4.28;;;;;;;;;;5052765;28;20127;-79
2021/08/12 01:31:35;;;;;;;6.20;4.65;;;;;;;;;;5069172;28;20056;-79
2021/08/12 01:34:21;;;;;;;6.50;3.60;;;;;;;;;;5053593;28;20073;-79
2021/08/12 01:36:47;;;;;;;5.90;4.10;;;;;;;;;;5035838;28;20106;-79
2021/08/12 01:39:14;;;;;;;5.78;3.58;;;;;;;;;;5068622;28;20527;-79
2021/08/12 01:41:40;;;;;;;6.03;3.70;;;;;;;;;;5068724;28;20037;-79
2021/08/12 01:44:05;;;;;;;6.28;4.15;;;;;;;;;;5020260;28;20044;-79
2021/08/12 01:46:31;;;;;;;4.93;3.78;;;;;;;;;;5035744;28;20072;-78
2021/08/12 01:48:56;;;;;;;5.22;4.05;;;;;;;;;;5051763;28;20037;-79
2021/08/12 01:51:23;;;;;;;5.22;3.90;;;;;;;;;;5035632;28;20037;-79
2021/08/12 01:53:48;;;;;;;6.18;4.50;;;;;;;;;;5035959;28;20090;-79
2021/08/12 01:56:14;;;;;;;5.63;3.92;;;;;;;;;;5018724;28;20041;-79
2021/08/12 01:58:40;;;;;;;4.95;3.72;;;;;;;;;;5051990;28;20075;-79
2021/08/12 02:01:05;;;;;;;5.72;4.25;;;;;;;;;;5068239;28;20064;-79
2021/08/12 02:03:31;;;;;;;5.03;3.92;;;;;;;;;;5052021;28;20099;-79
2021/08/12 02:05:57;;;;;;;4.95;3.75;;;;;;;;;;5035501;28;20033;-79
2021/08/12 02:08:23;;;;;;;6.90;4.05;;;;;;;;;;5051649;28;20116;-79
2021/08/12 02:10:49;;;;;;;4.85;3.85;;;;;;;;;;5051461;28;20124;-78
2021/08/12 02:13:14;;;;;;;5.80;4.40;;;;;;;;;;5068469;28;20501;-79
2021/08/12 02:15:40;;;;;;;5.78;4.38;;;;;;;;;;5051830;28;20043;-79
2021/08/12 02:18:05;;;;;;;5.10;4.07;;;;;;;;;;5051563;28;20028;-79
2021/08/12 02:20:31;;;;;;;5.40;4.05;;;;;;;;;;5018228;28;20083;-79
2021/08/12 02:23:07;;;;;;;6.65;4.28;;;;;;;;;;5018239;28;20025;-79
2021/08/12 02:26:07;;;;;;;5.60;4.00;;;;;;;;;;5067648;28;20065;-79
2021/08/12 02:28:32;;;;;;;5.28;4.32;;;;;;;;;;5020500;28;20055;-79
2021/08/12 02:30:58;;;;;;;4.95;3.80;;;;;;;;;;5068289;28;20123;-78
2021/08/12 02:33:27;;;;;;;5.00;3.85;;;;;;;;;;5034773;28;20037;-79
2021/08/12 02:35:53;;;;;;;5.30;4.00;;;;;;;;;;5051412;28;20070;-78
2021/08/12 02:38:18;;;;;;;5.75;4.05;;;;;;;;;;5034917;28;20037;-79
2021/08/12 02:40:44;;;;;;;5.28;4.22;;;;;;;;;;5067319;28;20415;-79
2021/08/12 02:43:09;;;;;;;4.53;3.75;;;;;;;;;;5051170;28;20028;-79
2021/08/12 02:45:35;;;;;;;5.57;4.50;;;;;;;;;;5054455;28;20093;-79
2021/08/12 02:48:01;;;;;;;4.60;3.20;;;;;;;;;;5034734;28;20052;-79
2021/08/12 02:50:26;;;;;;;6.45;3.95;;;;;;;;;;5001789;28;20059;-79
2021/08/12 02:52:52;;;;;;;6.18;4.32;;;;;;;;;;5001225;28;20037;-79
2021/08/12 02:55:21;;;;;;;5.13;3.60;;;;;;;;;;5002438;28;20036;-79
2021/08/12 02:57:47;;;;;;;5.10;3.75;;;;;;;;;;5034626;28;20084;-79
2021/08/12 03:00:13;;;;;;;6.28;4.03;;;;;;;;;;5018105;28;20025;-79
2021/08/12 03:02:39;;;;;;;4.45;3.55;;;;;;;;;;5034571;28;20044;-79
2021/08/12 03:05:05;;;;;;;4.82;3.40;;;;;;;;;;5017678;28;20028;-79
2021/08/12 03:07:30;;;;;;;4.85;4.00;;;;;;;;;;5001638;28;20051;-79
2021/08/12 03:09:56;;;;;;;5.45;3.72;;;;;;;;;;5017355;28;20048;-79
2021/08/12 03:12:22;;;;;;;5.15;3.85;;;;;;;;;;5018113;28;20099;-79
2021/08/12 03:14:48;;;;;;;4.95;3.65;;;;;;;;;;5017659;28;20029;-79
2021/08/12 03:17:13;;;;;;;6.05;3.85;;;;;;;;;;5017783;28;20084;-79
2021/08/12 03:19:39;;;;;;;5.82;3.65;;;;;;;;;;5016926;28;20028;-79
2021/08/12 03:22:06;;;;;;;5.15;3.90;;;;;;;;;;5017814;28;20048;-79
2021/08/12 03:24:33;;;;;;;5.28;3.88;;;;;;;;;;5001487;28;20037;-79
2021/08/12 03:26:59;;;;;;;4.93;3.50;;;;;;;;;;5017651;28;20076;-79
2021/08/12 03:29:25;;;;;;;4.72;3.15;;;;;;;;;;5001147;28;20060;-79
2021/08/12 03:31:50;;;;;;;4.65;3.50;;;;;;;;;;5017743;28;20115;-79
2021/08/12 03:34:16;;;;;;;5.88;3.78;;;;;;;;;;5033608;28;20052;-79
2021/08/12 03:36:41;;;;;;;4.95;3.67;;;;;;;;;;5033479;28;20029;-79
2021/08/12 03:39:07;;;;;;;4.50;3.25;;;;;;;;;;5016988;28;20419;-79
2021/08/12 03:41:32;;;;;;;5.03;3.78;;;;;;;;;;5000917;28;20110;-79
2021/08/12 03:43:58;;;;;;;4.97;3.72;;;;;;;;;;5033810;28;20033;-79
2021/08/12 03:46:23;;;;;;;4.53;3.72;;;;;;;;;;5021543;28;20120;-79
2021/08/12 03:48:49;;;;;;;5.15;3.58;;;;;;;;;;5016671;28;20029;-79
2021/08/12 03:51:14;;;;;;;5.57;3.65;;;;;;;;;;5016892;28;20091;-79
2021/08/12 03:53:40;;;;;;;4.57;3.33;;;;;;;;;;5017576;28;20056;-79
2021/08/12 03:56:05;;;;;;;5.05;3.35;;;;;;;;;;5033648;28;20041;-79
2021/08/12 03:58:32;;;;;;;5.22;3.53;;;;;;;;;;5017122;28;20041;-79
2021/08/12 04:00:57;;;;;;;5.15;3.55;;;;;;;;;;5017509;28;20033;-78
2021/08/12 04:03:23;;;;;;;4.93;3.55;;;;;;;;;;5033289;28;20072;-79
2021/08/12 04:05:49;;;;;;;4.78;3.97;;;;;;;;;;5016974;28;20499;-79
2021/08/12 04:08:14;;;;;;;5.70;3.55;;;;;;;;;;5017291;28;20032;-79
2021/08/12 04:10:39;;;;;;;6.03;2.95;;;;;;;;;;5017195;28;20064;-79
2021/08/12 04:13:05;;;;;;;4.57;3.45;;;;;;;;;;5016985;28;20029;-79
2021/08/12 04:15:30;;;;;;;6.07;3.63;;;;;;;;;;5016851;28;20045;-79
2021/08/12 04:17:56;;;;;;;4.80;3.42;;;;;;;;;;5017154;28;20037;-79
2021/08/12 04:20:21;;;;;;;4.55;3.38;;;;;;;;;;5016272;28;20106;-79
2021/08/12 04:22:47;;;;;;;3.90;3.25;;;;;;;;;;5016948;28;20082;-79
2021/08/12 04:25:12;;;;;;;5.05;3.35;;;;;;;;;;5033491;28;20071;-79
2021/08/12 04:27:38;;;;;;;3.85;2.88;;;;;;;;;;5016744;28;20411;-79
2021/08/12 04:30:06;;;;;;;3.35;2.80;;;;;;;;;;5017082;28;20037;-78
2021/08/12 04:32:31;;;;;;;4.82;3.53;;;;;;;;;;5000593;28;20105;-79
2021/08/12 04:34:57;;;;;;;4.05;2.85;;;;;;;;;;5016380;28;20380;-79
2021/08/12 04:37:22;;;;;;;4.47;3.22;;;;;;;;;;5017061;28;20032;-79
2021/08/12 04:39:48;;;;;;;4.63;3.10;;;;;;;;;;5017003;28;20041;-79
2021/08/12 04:42:13;;;;;;;4.63;3.42;;;;;;;;;;5016711;28;20043;-79
2021/08/12 04:44:39;;;;;;;5.05;3.03;;;;;;;;;;5016635;28;20037;-79
2021/08/12 04:47:04;;;;;;;5.78;3.40;;;;;;;;;;5025955;28;20055;-79
2021/08/12 04:49:30;;;;;;;4.00;2.90;;;;;;;;;;5003520;28;20025;-79
2021/08/12 04:51:55;;;;;;;4.32;3.45;;;;;;;;;;5003765;28;20106;-78
2021/08/12 04:54:21;;;;;;;3.95;3.10;;;;;;;;;;5020067;28;20044;-79
2021/08/12 04:56:46;;;;;;;5.15;3.20;;;;;;;;;;5036684;28;20131;-79
2021/08/12 04:59:12;;;;;;;4.60;2.90;;;;;;;;;;5019939;28;20045;-79
2021/08/12 05:01:37;;;;;;;5.35;3.30;;;;;;;;;;5020081;28;20037;-78
2021/08/12 05:04:03;;;;;;;5.40;3.47;;;;;;;;;;5019733;28;20063;-79
2021/08/12 05:06:28;;;;;;;4.38;3.00;;;;;;;;;;5003439;28;20029;-79
2021/08/12 05:08:53;;;;;;;5.43;3.55;;;;;;;;;;5019835;28;20056;-79
2021/08/12 05:11:19;;;;;;;3.83;3.10;;;;;;;;;;5019944;28;20025;-79
2021/08/12 05:13:46;;;;;;;4.25;3.15;;;;;;;;;;5036679;28;20385;-79
2021/08/12 05:16:12;;;;;;;3.70;2.75;;;;;;;;;;5036382;28;20036;-78
2021/08/12 05:18:38;;;;;;;4.72;3.00;;;;;;;;;;5002829;28;20091;-79
2021/08/12 05:21:03;;;;;;;4.70;2.95;;;;;;;;;;5003010;28;20411;-79
2021/08/12 05:23:29;;;;;;;4.25;3.22;;;;;;;;;;5019945;28;20068;-78
2021/08/12 05:25:55;;;;;;;4.13;3.08;;;;;;;;;;5019759;28;20036;-79
2021/08/12 05:28:20;;;;;;;3.33;2.58;;;;;;;;;;5019545;28;20410;-79
2021/08/12 05:30:46;;;;;;;4.63;3.17;;;;;;;;;;5019958;28;20082;-79
2021/08/12 05:33:12;;;;;;;4.15;2.80;;;;;;;;;;5018802;28;20064;-78
2021/08/12 05:35:37;;;;;;;4.20;3.17;;;;;;;;;;5019386;28;20066;-79
2021/08/12 05:38:03;;;;;;;4.18;3.40;;;;;;;;;;5003113;28;20037;-79
2021/08/12 05:40:28;;;;;;;5.07;3.15;;;;;;;;;;5019133;28;20037;-79
2021/08/12 05:42:54;;;;;;;3.67;2.75;;;;;;;;;;5019546;28;20110;-78
2021/08/12 05:45:19;;;;;;;4.55;3.13;;;;;;;;;;5013997;28;20112;-79
2021/08/12 05:47:45;;;;;;;4.05;3.03;;;;;;;;;;5018739;28;20041;-79
2021/08/12 05:50:10;;;;;;;3.80;2.72;;;;;;;;;;5002812;28;20494;-78
2021/08/12 05:52:37;;;;;;;4.25;2.92;;;;;;;;;;5035393;28;20063;-79
2021/08/12 05:55:03;;;;;;;4.55;3.15;;;;;;;;;;5019188;28;20032;-79
2021/08/12 05:57:29;;;;;;;4.95;2.88;;;;;;;;;;5052310;28;20029;-79
2021/08/12 05:59:54;;;;;;;3.83;2.83;;;;;;;;;;5035321;28;20493;-79
2021/08/12 06:02:20;;;;;;;4.53;3.20;;;;;;;;;;5018627;28;20041;-78
2021/08/12 06:04:45;;;;;;;3.80;2.65;;;;;;;;;;5035273;28;20051;-79
2021/08/12 06:07:11;;;;;;;3.72;2.53;;;;;;;;;;5035417;28;20049;-79
2021/08/12 06:09:36;;;;;;;3.65;2.63;;;;;;;;;;5018507;28;20087;-78
2021/08/12 06:12:02;;;;;;;4.05;2.75;;;;;;;;;;5018777;28;20033;-79
2021/08/12 06:14:27;;;;;;;4.38;3.20;;;;;;;;;;5002493;28;20029;-77
2021/08/12 06:16:53;;;;;;;3.15;2.50;;;;;;;;;;5034803;28;20040;-79
2021/08/12 06:19:19;;;;;;;4.45;2.78;;;;;;;;;;5034994;28;20033;-78
2021/08/12 06:21:44;;;;;;;3.47;2.75;;;;;;;;;;5034832;28;20029;-79
2021/08/12 06:24:14;;;;;;;4.35;2.88;;;;;;;;;;5034962;28;20029;-79
2021/08/12 06:26:39;;;;;;;4.43;3.00;;;;;;;;;;5019834;28;20063;-78
2021/08/12 06:29:05;;;;;;;4.47;3.10;;;;;;;;;;5034838;28;20033;-79
2021/08/12 06:31:30;;;;;;;3.55;2.83;;;;;;;;;;5018238;28;20124;-79
2021/08/12 06:33:56;;;;;;;4.50;3.47;;;;;;;;;;5018067;28;20040;-79
2021/08/12 06:36:21;;;;;;;5.82;3.13;;;;;;;;;;5035021;28;20106;-79
2021/08/12 06:38:47;;;;;;;4.93;3.15;;;;;;;;;;5001759;28;20040;-78
2021/08/12 06:41:12;;;;;;;3.92;2.60;;;;;;;;;;5034586;28;20064;-78
2021/08/12 06:43:38;;;;;;;4.05;3.00;;;;;;;;;;5034696;28;20090;-79
2021/08/12 06:46:03;;;;;;;4.30;2.50;;;;;;;;;;5032667;28;20029;-79
2021/08/12 06:48:29;;;;;;;4.15;2.90;;;;;;;;;;5034566;28;20032;-78
2021/08/12 06:50:55;;;;;;;3.72;2.78;;;;;;;;;;5033876;28;20033;-79
2021/08/12 06:53:20;;;;;;;3.78;2.65;;;;;;;;;;5034562;28;20037;-79
2021/08/12 06:55:46;;;;;;;3.50;2.80;;;;;;;;;;5018215;28;20077;-78
2021/08/12 06:58:11;;;;;;;3.33;2.17;;;;;;;;;;5034871;28;20119;-79
2021/08/12 07:00:37;;;;;;;4.47;2.80;;;;;;;;;;5017632;28;20055;-78
2021/08/12 07:03:02;;;;;;;5.07;2.42;;;;;;;;;;5034070;28;20035;-79
2021/08/12 07:05:28;;;;;;;3.85;2.75;;;;;;;;;;5034000;28;20124;-79
2021/08/12 07:07:54;;;;;;;4.72;3.15;;;;;;;;;;5034550;28;20059;-78
2021/08/12 07:10:19;;;;;;;4.43;3.05;;;;;;;;;;5017206;28;20124;-78
2021/08/12 07:12:45;;;;;;;3.67;2.80;;;;;;;;;;5034185;28;20061;-79
2021/08/12 07:15:11;;;;;;;3.65;2.83;;;;;;;;;;5017136;28;20044;-79
2021/08/12 07:17:36;;;;;;;3.78;2.42;;;;;;;;;;5033889;28;20028;-79
2021/08/12 07:20:03;;;;;;;4.90;3.00;;;;;;;;;;5034029;28;20033;-79
2021/08/12 07:22:29;;;;;;;3.22;2.42;;;;;;;;;;5034143;28;20056;-79
2021/08/12 07:24:54;;;;;;;3.88;2.45;;;;;;;;;;5017676;28;20554;-79
2021/08/12 07:27:19;;;;;;;3.88;2.80;;;;;;;;;;5033789;28;20029;-78
2021/08/12 07:29:45;;;;;;;4.15;2.80;;;;;;;;;;5017593;28;20033;-78
2021/08/12 07:32:11;;;;;;;3.90;2.45;;;;;;;;;;5034013;28;20025;-78
2021/08/12 07:34:37;;;;;;;4.32;2.72;;;;;;;;;;5001185;28;20495;-79
2021/08/12 07:37:04;;;;;;;3.95;2.80;;;;;;;;;;5033839;28;20029;-78
2021/08/12 07:39:29;;;;;;;3.72;2.42;;;;;;;;;;5017397;28;20095;-79
2021/08/12 07:41:55;;;;;;;4.30;2.92;;;;;;;;;;5034051;28;20441;-79
2021/08/12 07:44:20;;;;;;;4.03;2.40;;;;;;;;;;5003780;28;20037;-79
2021/08/12 07:46:46;;;;;;;3.25;2.40;;;;;;;;;;5053605;28;20036;-79
2021/08/12 07:49:11;;;;;;;4.10;2.95;;;;;;;;;;5017085;28;20068;-78
2021/08/12 07:51:37;;;;;;;4.30;3.08;;;;;;;;;;5017149;28;20494;-79
2021/08/12 07:54:02;;;;;;;4.38;2.85;;;;;;;;;;5050286;28;20033;-79
2021/08/12 07:56:28;;;;;;;4.55;2.67;;;;;;;;;;5017430;28;20037;-79
2021/08/12 07:58:53;;;;;;;3.45;2.35;;;;;;;;;;5033198;28;20036;-78
2021/08/12 08:01:19;;;;;;;5.10;2.90;;;;;;;;;;5033703;28;20115;-79
2021/08/12 08:03:45;;;;;;;3.70;2.60;;;;;;;;;;5033714;28;20047;-78
2021/08/12 08:06:10;;;;;;;5.03;2.70;;;;;;;;;;5050234;28;20061;-78
2021/08/12 08:08:36;;;;;;;3.60;2.55;;;;;;;;;;5033879;28;20052;-78
2021/08/12 08:11:01;;;;;;;4.28;2.63;;;;;;;;;;5033959;28;20098;-79
2021/08/12 08:13:27;;;;;;;4.40;2.90;;;;;;;;;;5016732;28;20105;-79
2021/08/12 08:15:52;;;;;;;4.53;3.10;;;;;;;;;;5017139;28;20403;-79
2021/08/12 08:18:18;;;;;;;4.32;2.53;;;;;;;;;;5033369;28;20037;-79
2021/08/12 08:20:43;;;;;;;4.22;2.35;;;;;;;;;;5033511;28;20453;-78
2021/08/12 08:23:10;;;;;;;3.17;2.35;;;;;;;;;;5036339;28;20123;-79
2021/08/12 08:25:36;;;;;;;3.22;2.40;;;;;;;;;;5037430;28;20033;-79
2021/08/12 08:28:01;;;;;;;3.55;2.55;;;;;;;;;;5020584;28;20098;-79
2021/08/12 08:30:27;;;;;;;4.50;2.97;;;;;;;;;;5020858;28;20070;-79
2021/08/12 08:32:53;;;;;;;4.30;2.53;;;;;;;;;;5037516;28;20196;-79
2021/08/12 08:35:18;;;;;;;3.80;2.58;;;;;;;;;;5037233;28;20056;-79
2021/08/12 08:37:44;;;;;;;3.95;2.65;;;;;;;;;;5020445;28;20041;-79
2021/08/12 08:40:10;;;;;;;5.43;2.67;;;;;;;;;;5037004;28;20040;-79
2021/08/12 08:42:36;;;;;;;3.28;2.38;;;;;;;;;;5020101;28;20507;-78
2021/08/12 08:45:02;;;;;;;4.00;2.35;;;;;;;;;;5025972;28;20048;-79
2021/08/12 08:47:28;;;;;;;3.38;2.50;;;;;;;;;;5044535;28;20029;-78
2021/08/12 08:49:54;;;;;;;3.72;2.42;;;;;;;;;;5020603;28;20040;-79
2021/08/12 08:52:20;;;;;;;4.88;2.35;;;;;;;;;;5036671;28;20064;-79
2021/08/12 08:54:45;;;;;;;3.50;2.67;;;;;;;;;;5020403;28;20025;-78
2021/08/12 08:57:11;;;;;;;4.15;2.40;;;;;;;;;;5020269;28;20087;-79
2021/08/12 08:59:36;;;;;;;4.55;2.50;;;;;;;;;;5020313;28;20060;-78
2021/08/12 09:02:03;;;;;;;5.82;2.80;;;;;;;;;;5020229;28;20040;-78
2021/08/12 09:04:28;;;;;;;4.35;2.47;;;;;;;;;;5019989;28;20033;-79
2021/08/12 09:06:54;;;;;;;3.35;2.20;;;;;;;;;;5003321;28;20514;-78
2021/08/12 09:09:19;;;;;;;4.28;2.85;;;;;;;;;;5036233;28;20040;-78
2021/08/12 09:11:45;;;;;;;4.00;2.70;;;;;;;;;;5019505;28;20090;-79
2021/08/12 09:14:37;;;;;;;3.95;2.47;;;;;;;;;;5003614;28;20033;-78
2021/08/12 09:17:17;;;;;;;4.15;3.00;;;;;;;;;;5052808;28;20491;-78
2021/08/12 09:19:59;;;;;;;3.30;2.47;;;;;;;;;;5052852;28;20120;-79
2021/08/12 09:22:27;;;;;;;4.35;2.30;;;;;;;;;;5020839;28;20040;-78
2021/08/12 09:24:52;;;;;;;5.55;2.42;;;;;;;;;;5019628;28;20082;-78
2021/08/12 09:27:19;;;;;;;3.58;2.50;;;;;;;;;;5003235;28;20029;-79
2021/08/12 09:29:45;;;;;;;3.67;2.63;;;;;;;;;;5019804;28;20039;-78
2021/08/12 09:32:10;;;;;;;4.63;2.80;;;;;;;;;;5019227;28;20108;-78
2021/08/12 09:34:44;;;;;;;4.63;2.75;;;;;;;;;;5019270;28;20037;-79
2021/08/12 09:37:10;;;;;;;4.60;2.35;;;;;;;;;;5036045;28;20072;-79
2021/08/12 09:39:36;;;;;;;4.25;3.00;;;;;;;;;;5002541;28;20044;-79
2021/08/12 09:42:03;;;;;;;3.92;2.50;;;;;;;;;;5019718;28;20884;-79
2021/08/12 09:44:40;;;;;;;4.90;2.70;;;;;;;;;;5023720;28;20107;-79
2021/08/12 09:47:25;;;;;;;4.32;2.60;;;;;;;;;;5054179;28;20041;-78
2021/08/12 09:49:51;;;;;;;3.33;2.50;;;;;;;;;;5040506;28;20107;-78
2021/08/12 09:52:24;;;;;;;4.10;2.70;;;;;;;;;;5039074;28;20601;-79
2021/08/12 09:54:56;;;;;;;4.88;2.22;;;;;;;;;;5022892;28;20033;-78
2021/08/12 09:57:22;;;;;;;4.70;2.90;;;;;;;;;;5038843;28;20514;-79
2021/08/12 09:59:48;;;;;;;3.78;2.45;;;;;;;;;;5038915;28;20050;-79
2021/08/12 10:02:16;;;;;;;4.00;2.50;;;;;;;;;;5022487;28;20029;-78
2021/08/12 10:04:43;;;;;;;3.55;2.28;;;;;;;;;;5022672;28;20132;-78
2021/08/12 10:07:29;;;;;;;3.83;2.45;;;;;;;;;;5038934;28;20414;-78
2021/08/12 10:09:54;;;;;;;3.95;2.55;;;;;;;;;;5071716;28;20166;-78
2021/08/12 10:12:32;;;;;;;3.25;2.30;;;;;;;;;;5038304;28;20037;-78
2021/08/12 10:14:58;;;;;;;3.53;2.13;;;;;;;;;;5038597;28;20028;-79
2021/08/12 10:17:23;;;;;;;4.80;2.92;;;;;;;;;;5038458;28;20071;-78
2021/08/12 10:19:49;;;;;;;3.70;2.50;;;;;;;;;;5022133;28;20033;-78
2021/08/12 10:22:15;;;;;;;3.88;2.50;;;;;;;;;;5037945;28;20048;-78
2021/08/12 10:24:40;;;;;;;2.60;2.00;;;;;;;;;;5021611;28;20032;-79
2021/08/12 10:27:06;;;;;;;3.42;2.10;;;;;;;;;;5021844;28;20036;-78
2021/08/12 10:29:34;;;;;;;3.00;2.20;;;;;;;;;;5038460;28;20110;-79
2021/08/12 10:32:00;;;;;;;3.30;2.10;;;;;;;;;;5039051;28;20029;-78
2021/08/12 10:34:25;;;;;;;3.85;2.92;;;;;;;;;;5037921;28;20028;-79
2021/08/12 10:36:51;;;;;;;3.67;1.92;;;;;;;;;;5038156;28;20048;-78
2021/08/12 10:39:16;;;;;;;4.55;2.15;;;;;;;;;;5020997;28;20117;-78
2021/08/12 10:41:42;;;;;;;3.20;2.05;;;;;;;;;;5038081;28;20049;-79
2021/08/12 10:44:08;;;;;;;3.35;1.83;;;;;;;;;;5021216;28;20445;-79
2021/08/12 10:46:37;;;;;;;3.83;2.10;;;;;;;;;;5021132;28;20036;-79
2021/08/12 10:49:29;;;;;;;3.67;2.38;;;;;;;;;;5034341;28;20063;-79
2021/08/12 10:52:00;;;;;;;3.17;2.17;;;;;;;;;;5050630;28;20091;-79
2021/08/12 10:54:25;;;;;;;4.03;2.42;;;;;;;;;;5051232;28;20029;-79
2021/08/12 10:56:51;;;;;;;3.22;2.15;;;;;;;;;;5018059;28;20048;-79
2021/08/12 10:59:16;;;;;;;3.83;2.40;;;;;;;;;;5033934;28;20044;-78
2021/08/12 11:01:42;;;;;;;3.45;2.17;;;;;;;;;;5034201;28;20036;-79
2021/08/12 11:04:07;;;;;;;4.00;2.10;;;;;;;;;;5034445;28;20064;-79
2021/08/12 11:06:40;;;;;;;3.83;2.53;;;;;;;;;;5017925;28;20033;-79
2021/08/12 11:09:08;;;;;;;2.40;1.77;;;;;;;;;;5034153;28;20037;-78
2021/08/12 11:11:33;;;;;;;3.28;1.88;;;;;;;;;;5034734;28;20048;-79
2021/08/12 11:14:03;;;;;;;2.80;1.80;;;;;;;;;;5050968;28;20029;-78
2021/08/12 11:16:49;;;;;;;3.88;2.10;;;;;;;;;;5033948;28;20044;-79
2021/08/12 11:19:21;;;;;;;3.35;2.08;;;;;;;;;;5050470;28;20116;-79
2021/08/12 11:21:46;;;;;;;3.17;2.00;;;;;;;;;;5050332;28;20037;-79
2021/08/12 11:24:35;;;;;;;3.15;2.13;;;;;;;;;;5017654;28;20525;-79
2021/08/12 11:27:00;;;;;;;3.70;2.17;;;;;;;;;;5051784;28;20041;-79
2021/08/12 11:29:28;;;;;;;3.72;2.55;;;;;;;;;;5051877;28;20087;-79
2021/08/12 11:32:10;;;;;;;3.75;2.45;;;;;;;;;;5050648;28;20048;-79
2021/08/12 11:34:51;;;;;;;3.75;2.10;;;;;;;;;;5050379;28;20033;-78
2021/08/12 11:37:17;;;;;;;3.05;1.70;;;;;;;;;;5051231;28;20036;-79
2021/08/12 11:40:11;;;;;;;2.78;1.88;;;;;;;;;;5033422;28;20472;-79
2021/08/12 11:42:40;;;;;;;3.45;2.30;;;;;;;;;;5017988;28;20380;-79
2021/08/12 11:45:12;;;;;;;3.88;2.42;;;;;;;;;;5043258;28;20032;-79
2021/08/12 11:47:39;;;;;;;4.07;2.20;;;;;;;;;;5047393;28;20087;-78
2021/08/12 11:50:06;;;;;;;3.10;1.80;;;;;;;;;;5033730;28;20103;-79
2021/08/12 11:52:33;;;;;;;2.67;2.08;;;;;;;;;;5017145;28;20071;-79
2021/08/12 11:55:20;;;;;;;3.88;1.98;;;;;;;;;;5033949;28;20526;-79
2021/08/12 11:57:56;;;;;;;2.65;1.67;;;;;;;;;;5054292;28;20049;-78
2021/08/12 12:00:29;;;;;;;2.83;2.05;;;;;;;;;;5021533;28;20040;-79
2021/08/12 12:02:55;;;;;;;2.83;1.85;;;;;;;;;;5021863;28;20372;-78
2021/08/12 12:05:26;;;;;;;3.67;1.83;;;;;;;;;;5037491;28;20043;-79
2021/08/12 12:08:07;;;;;;;4.35;2.20;;;;;;;;;;5021892;28;20127;-79
2021/08/12 12:10:33;;;;;;;3.03;1.88;;;;;;;;;;5021432;28;20060;-79
2021/08/12 12:13:15;;;;;;;3.70;2.10;;;;;;;;;;5037642;28;20495;-79
2021/08/12 12:15:42;;;;;;;3.10;1.90;;;;;;;;;;5021368;28;20037;-79
2021/08/12 12:18:08;;;;;;;3.15;1.92;;;;;;;;;;5021366;28;20029;-79
2021/08/12 12:20:37;;;;;;;3.75;2.15;;;;;;;;;;5004028;28;20086;-79
2021/08/12 12:23:04;;;;;;;2.53;1.85;;;;;;;;;;5004606;28;20495;-78
2021/08/12 12:25:36;;;;;;;3.08;1.92;;;;;;;;;;5020838;28;20029;-79
2021/08/12 12:28:02;;;;;;;2.75;1.80;;;;;;;;;;5021803;28;20041;-78
2021/08/12 12:30:29;;;;;;;3.00;1.58;;;;;;;;;;5020838;28;20037;-78
2021/08/12 12:33:00;;;;;;;2.95;2.00;;;;;;;;;;5037176;28;20044;-79
2021/08/12 12:35:26;;;;;;;2.58;1.95;;;;;;;;;;5020277;28;20437;-78
2021/08/12 12:37:52;;;;;;;2.95;1.70;;;;;;;;;;5020493;28;20120;-79
2021/08/12 12:40:20;;;;;;;3.92;2.17;;;;;;;;;;5020183;28;20132;-79
2021/08/12 12:42:51;;;;;;;2.55;1.88;;;;;;;;;;5037785;28;20035;-78
2021/08/12 12:45:17;;;;;;;3.58;1.90;;;;;;;;;;5048070;28;20119;-78
2021/08/12 12:47:43;;;;;;;2.85;1.90;;;;;;;;;;5049606;28;20104;-79
2021/08/12 12:50:09;;;;;;;3.00;2.00;;;;;;;;;;5003655;28;20029;-79
2021/08/12 12:52:36;;;;;;;3.20;1.88;;;;;;;;;;5020007;28;20510;-79
2021/08/12 12:55:02;;;;;;;3.70;2.47;;;;;;;;;;5020482;28;20124;-78
2021/08/12 12:57:34;;;;;;;2.75;1.73;;;;;;;;;;5020768;28;20104;-78
2021/08/12 13:00:00;;;;;;;3.38;2.05;;;;;;;;;;5036548;28;20037;-79
2021/08/12 13:02:25;;;;;;;2.67;1.83;;;;;;;;;;5036294;28;20139;-79
2021/08/12 13:05:00;;;;;;;2.90;2.03;;;;;;;;;;5036682;28;20199;-79
2021/08/12 13:07:26;;;;;;;3.03;1.75;;;;;;;;;;5019410;28;20438;-79
2021/08/12 13:09:52;;;;;;;3.08;2.00;;;;;;;;;;5036252;28;20095;-78
2021/08/12 13:12:23;;;;;;;2.92;1.90;;;;;;;;;;5037073;28;20045;-79
2021/08/12 13:14:48;;;;;;;2.85;1.80;;;;;;;;;;5053227;28;20045;-79
2021/08/12 13:17:29;;;;;;;2.53;1.60;;;;;;;;;;5003080;28;20048;-78
2021/08/12 13:20:38;;;;;;;3.10;2.10;;;;;;;;;;5019552;28;20033;-79
2021/08/12 13:23:04;;;;;;;2.55;1.65;;;;;;;;;;5009320;28;20052;-78
2021/08/12 13:25:29;;;;;;;3.58;2.08;;;;;;;;;;5036660;28;20040;-79
2021/08/12 13:27:55;;;;;;;2.70;1.85;;;;;;;;;;5019658;28;20449;-78
2021/08/12 13:30:32;;;;;;;3.78;2.00;;;;;;;;;;5036520;28;20033;-79
2021/08/12 13:32:57;;;;;;;3.15;1.90;;;;;;;;;;5035822;28;20119;-78
2021/08/12 13:35:24;;;;;;;2.60;1.80;;;;;;;;;;5035999;28;20117;-78
2021/08/12 13:37:50;;;;;;;2.90;1.90;;;;;;;;;;5019485;28;20061;-79
2021/08/12 13:40:15;;;;;;;2.65;1.58;;;;;;;;;;5035828;28;20091;-79
2021/08/12 13:42:41;;;;;;;3.22;1.92;;;;;;;;;;5019539;28;20125;-79
2021/08/12 13:45:07;;;;;;;3.15;1.73;;;;;;;;;;5025281;28;20029;-79
2021/08/12 13:47:32;;;;;;;2.70;1.85;;;;;;;;;;5012689;28;20048;-79
2021/08/12 13:49:58;;;;;;;3.67;1.58;;;;;;;;;;5035962;28;20032;-79
2021/08/12 13:52:23;;;;;;;3.00;1.95;;;;;;;;;;5035388;28;20403;-78
2021/08/12 13:54:49;;;;;;;3.42;1.92;;;;;;;;;;5019353;28;20021;-78
2021/08/12 13:57:14;;;;;;;2.92;1.60;;;;;;;;;;5051946;28;20087;-78
2021/08/12 13:59:40;;;;;;;3.25;1.77;;;;;;;;;;5035235;28;20098;-78
2021/08/12 14:02:05;;;;;;;2.92;1.98;;;;;;;;;;5018797;28;20040;-79
2021/08/12 14:04:31;;;;;;;2.72;1.77;;;;;;;;;;5035442;28;20133;-79
2021/08/12 14:06:56;;;;;;;2.85;1.98;;;;;;;;;;5051646;28;20128;-79
2021/08/12 14:09:22;;;;;;;2.72;1.92;;;;;;;;;;5018931;28;20044;-78
2021/08/12 14:11:47;;;;;;;3.33;1.90;;;;;;;;;;5051964;28;20064;-78
2021/08/12 14:14:14;;;;;;;3.10;2.03;;;;;;;;;;5035485;28;20033;-78
2021/08/12 14:16:39;;;;;;;3.00;1.98;;;;;;;;;;5035027;28;20146;-79
2021/08/12 14:19:05;;;;;;;3.83;1.88;;;;;;;;;;5018018;28;20200;-79
2021/08/12 14:21:31;;;;;;;2.38;1.50;;;;;;;;;;5051506;28;20032;-79
2021/08/12 14:23:57;;;;;;;2.63;1.50;;;;;;;;;;5018646;28;20565;-78
2021/08/12 14:26:22;;;;;;;2.83;1.77;;;;;;;;;;5051489;28;20044;-79
2021/08/12 14:28:48;;;;;;;3.80;1.92;;;;;;;;;;5051803;28;20533;-78
2021/08/12 14:31:13;;;;;;;2.40;1.60;;;;;;;;;;5018096;28;20037;-78
2021/08/12 14:33:39;;;;;;;3.05;1.80;;;;;;;;;;5018388;28;20404;-79
2021/08/12 14:36:06;;;;;;;2.58;1.73;;;;;;;;;;5034839;28;20037;-78
2021/08/12 14:38:32;;;;;;;2.85;1.60;;;;;;;;;;5034448;28;20032;-79
2021/08/12 14:40:59;;;;;;;2.67;1.50;;;;;;;;;;5051204;28;20075;-79
2021/08/12 14:43:25;;;;;;;2.90;1.98;;;;;;;;;;5035125;28;20044;-78
2021/08/12 14:45:51;;;;;;;2.63;1.83;;;;;;;;;;5034536;28;20460;-79